sensor_id;sensor_type;location;lat;lon;timestamp;pressure;altitude;pressure_sealevel;temperature;humidity
11198;BME280;5655;48.744;9.162;2023-02-10T00:00:42;97917.88;;;1.53;100.00
11198;BME280;5655;48.744;9.162;2023-02-10T00:03:08;97906.28;;;1.49;100.00
11198;BME280;5655;48.744;9.162;2023-02-10T00:05:33;97907.34;;;1.53;100.00
11198;BME280;5655;48.744;9.162;2023-02-10T00:07:58;97898.63;;;1.43;100.00
11198;BME280;5655;48.744;9.162;2023-02-10T00:10:24;97904.97;;;1.42;100.00
11198;BME280;5655;48.744;9.162;2023-02-10T00:12:49;97911.81;;;1.43;100.00
11198;BME280;5655;48.744;9.162;2023-02-10T00:15:15;97902.09;;;1.38;100.00
11198;BME280;5655;48.744;9.162;2023-02-10T00:17:40;97907.09;;;1.29;100.00
11198;BME280;5655;48.744;9.162;2023-02-10T00:20:06;97901.03;;;1.29;100.00
11198;BME280;5655;48.744;9.162;2023-02-10T00:22:33;97907.09;;;1.09;100.00
11198;BME280;5655;48.744;9.162;2023-02-10T00:24:58;97905.75;;;1.22;100.00
11198;BME280;5655;48.744;9.162;2023-02-10T00:27:23;97901.81;;;1.19;100.00
11198;BME280;5655;48.744;9.162;2023-02-10T00:29:50;97891.28;;;1.24;100.00
11198;BME280;5655;48.744;9.162;2023-02-10T00:32:15;97898.13;;;1.20;100.00
11198;BME280;5655;48.744;9.162;2023-02-10T00:34:43;97899.69;;;1.31;100.00
11198;BME280;5655;48.744;9.162;2023-02-10T00:37:08;97907.09;;;1.24;100.00
11198;BME280;5655;48.744;9.162;2023-02-10T00:39:34;97899.19;;;1.09;100.00
11198;BME280;5655;48.744;9.162;2023-02-10T00:41:59;97910.53;;;1.15;100.00
11198;BME280;5655;48.744;9.162;2023-02-10T00:44:24;97921.88;;;1.15;100.00
11198;BME280;5655;48.744;9.162;2023-02-10T00:46:50;97926.34;;;1.10;100.00
11198;BME280;5655;48.744;9.162;2023-02-10T00:49:15;97927.13;;;1.10;100.00
11198;BME280;5655;48.744;9.162;2023-02-10T00:51:40;97930.81;;;1.09;100.00
11198;BME280;5655;48.744;9.162;2023-02-10T00:54:06;97926.88;;;1.12;100.00
11198;BME280;5655;48.744;9.162;2023-02-10T00:56:32;97929.75;;;1.05;100.00
11198;BME280;5655;48.744;9.162;2023-02-10T00:58:57;97916.84;;;0.99;100.00
11198;BME280;5655;48.744;9.162;2023-02-10T01:01:22;97917.63;;;0.89;100.00
11198;BME280;5655;48.744;9.162;2023-02-10T01:03:48;97928.19;;;0.99;100.00
11198;BME280;5655;48.744;9.162;2023-02-10T01:06:13;97931.88;;;1.03;100.00
11198;BME280;5655;48.744;9.162;2023-02-10T01:08:42;97923.91;;;0.63;100.00
11198;BME280;5655;48.744;9.162;2023-02-10T01:11:10;97922.63;;;0.85;100.00
11198;BME280;5655;48.744;9.162;2023-02-10T01:13:37;97935.03;;;0.90;100.00
11198;BME280;5655;48.744;9.162;2023-02-10T01:16:08;97936.59;;;0.91;100.00
11198;BME280;5655;48.744;9.162;2023-02-10T01:18:35;97919.16;;;0.70;100.00
11198;BME280;5655;48.744;9.162;2023-02-10T01:21:09;97938.16;;;0.87;100.00
11198;BME280;5655;48.744;9.162;2023-02-10T01:23:35;97935.97;;;0.49;100.00
11198;BME280;5655;48.744;9.162;2023-02-10T01:26:00;97925.94;;;0.40;100.00
11198;BME280;5655;48.744;9.162;2023-02-10T01:28:26;97926.22;;;0.44;100.00
11198;BME280;5655;48.744;9.162;2023-02-10T01:30:51;97925.75;;;-0.05;100.00
11198;BME280;5655;48.744;9.162;2023-02-10T01:33:17;97928.81;;;-0.23;100.00
11198;BME280;5655;48.744;9.162;2023-02-10T01:35:42;97923.06;;;-0.15;100.00
11198;BME280;5655;48.744;9.162;2023-02-10T01:38:07;97923.94;;;-0.05;100.00
11198;BME280;5655;48.744;9.162;2023-02-10T01:40:33;97924.03;;;-0.31;100.00
11198;BME280;5655;48.744;9.162;2023-02-10T01:42:58;97929.31;;;-0.31;100.00
11198;BME280;5655;48.744;9.162;2023-02-10T01:45:35;97924.84;;;0.21;100.00
11198;BME280;5655;48.744;9.162;2023-02-10T01:48:01;97916.56;;;-0.03;100.00
11198;BME280;5655;48.744;9.162;2023-02-10T01:50:30;97921.03;;;-0.03;100.00
11198;BME280;5655;48.744;9.162;2023-02-10T01:52:57;97918.44;;;0.07;100.00
11198;BME280;5655;48.744;9.162;2023-02-10T01:55:27;97915.75;;;-0.03;100.00
11198;BME280;5655;48.744;9.162;2023-02-10T01:57:55;97912.53;;;-0.15;100.00
11198;BME280;5655;48.744;9.162;2023-02-10T02:00:22;97918.38;;;-0.03;100.00
11198;BME280;5655;48.744;9.162;2023-02-10T02:02:49;97925.72;;;-0.10;100.00
11198;BME280;5655;48.744;9.162;2023-02-10T02:05:27;97921.59;;;0.04;100.00
11198;BME280;5655;48.744;9.162;2023-02-10T02:07:54;97928.84;;;-0.18;100.00
11198;BME280;5655;48.744;9.162;2023-02-10T02:10:23;97931.09;;;0.10;100.00
11198;BME280;5655;48.744;9.162;2023-02-10T02:13:03;97934.81;;;0.19;100.00
11198;BME280;5655;48.744;9.162;2023-02-10T02:18:28;97938.28;;;0.25;100.00
11198;BME280;5655;48.744;9.162;2023-02-10T02:32:33;97947.22;;;0.24;100.00
11198;BME280;5655;48.744;9.162;2023-02-10T02:35:11;97947.75;;;0.31;100.00
11198;BME280;5655;48.744;9.162;2023-02-10T02:37:43;97948.03;;;0.29;100.00
11198;BME280;5655;48.744;9.162;2023-02-10T02:40:12;97951.69;;;0.23;100.00
11198;BME280;5655;48.744;9.162;2023-02-10T02:42:38;97945.56;;;0.08;100.00
11198;BME280;5655;48.744;9.162;2023-02-10T02:48:16;97951.75;;;0.43;100.00
11198;BME280;5655;48.744;9.162;2023-02-10T02:53:32;97955.69;;;0.36;100.00
11198;BME280;5655;48.744;9.162;2023-02-10T02:56:08;97957.22;;;0.27;100.00
11198;BME280;5655;48.744;9.162;2023-02-10T03:01:09;97954.31;;;0.23;100.00
11198;BME280;5655;48.744;9.162;2023-02-10T03:03:37;97956.34;;;0.06;100.00
11198;BME280;5655;48.744;9.162;2023-02-10T03:06:03;97956.41;;;0.16;100.00
11198;BME280;5655;48.744;9.162;2023-02-10T03:08:31;97954.25;;;0.08;100.00
11198;BME280;5655;48.744;9.162;2023-02-10T03:10:58;97961.84;;;-0.01;100.00
11198;BME280;5655;48.744;9.162;2023-02-10T03:13:23;97958.13;;;-0.05;100.00
11198;BME280;5655;48.744;9.162;2023-02-10T03:15:49;97964.16;;;-0.09;100.00
11198;BME280;5655;48.744;9.162;2023-02-10T03:18:14;97957.31;;;-0.10;100.00
11198;BME280;5655;48.744;9.162;2023-02-10T03:20:40;97962.03;;;-0.12;100.00
11198;BME280;5655;48.744;9.162;2023-02-10T03:23:05;97959.66;;;-0.09;100.00
11198;BME280;5655;48.744;9.162;2023-02-10T03:25:32;97975.25;;;-0.02;100.00
11198;BME280;5655;48.744;9.162;2023-02-10T03:27:58;97967.88;;;-0.05;100.00
11198;BME280;5655;48.744;9.162;2023-02-10T03:30:24;97969.41;;;-0.14;100.00
11198;BME280;5655;48.744;9.162;2023-02-10T03:32:49;97966.25;;;-0.11;100.00
11198;BME280;5655;48.744;9.162;2023-02-10T03:35:16;97969.94;;;-0.07;100.00
11198;BME280;5655;48.744;9.162;2023-02-10T03:37:42;97976.25;;;-0.08;100.00
11198;BME280;5655;48.744;9.162;2023-02-10T03:40:07;97972.06;;;-0.04;100.00
11198;BME280;5655;48.744;9.162;2023-02-10T03:42:39;97967.72;;;0.17;100.00
11198;BME280;5655;48.744;9.162;2023-02-10T03:45:04;97972.09;;;0.01;100.00
11198;BME280;5655;48.744;9.162;2023-02-10T03:47:30;97974.75;;;0.06;100.00
11198;BME280;5655;48.744;9.162;2023-02-10T03:49:55;97972.13;;;0.06;100.00
11198;BME280;5655;48.744;9.162;2023-02-10T03:52:21;97982.13;;;0.09;100.00
11198;BME280;5655;48.744;9.162;2023-02-10T03:54:46;97978.75;;;0.14;100.00
11198;BME280;5655;48.744;9.162;2023-02-10T03:57:11;97983.22;;;0.13;100.00
11198;BME280;5655;48.744;9.162;2023-02-10T03:59:37;97975.88;;;0.15;100.00
11198;BME280;5655;48.744;9.162;2023-02-10T04:02:02;97982.72;;;0.16;100.00
11198;BME280;5655;48.744;9.162;2023-02-10T04:04:28;97984.88;;;0.24;100.00
11198;BME280;5655;48.744;9.162;2023-02-10T04:06:53;97978.53;;;0.20;100.00
11198;BME280;5655;48.744;9.162;2023-02-10T04:09:19;97981.66;;;0.12;100.00
11198;BME280;5655;48.744;9.162;2023-02-10T04:11:44;97986.41;;;0.15;100.00
11198;BME280;5655;48.744;9.162;2023-02-10T04:14:10;97977.66;;;0.10;100.00
11198;BME280;5655;48.744;9.162;2023-02-10T04:16:35;97980.84;;;0.12;100.00
11198;BME280;5655;48.744;9.162;2023-02-10T04:19:00;97984.78;;;0.09;100.00
11198;BME280;5655;48.744;9.162;2023-02-10T04:21:26;97975.81;;;0.05;100.00
11198;BME280;5655;48.744;9.162;2023-02-10T04:23:52;97979.50;;;0.09;100.00
11198;BME280;5655;48.744;9.162;2023-02-10T04:26:18;97987.88;;;0.01;100.00
11198;BME280;5655;48.744;9.162;2023-02-10T04:28:43;97983.69;;;0.00;100.00
11198;BME280;5655;48.744;9.162;2023-02-10T04:31:09;97985.25;;;0.01;100.00
11198;BME280;5655;48.744;9.162;2023-02-10T04:33:35;97987.84;;;-0.04;100.00
11198;BME280;5655;48.744;9.162;2023-02-10T04:36:01;97986.22;;;-0.15;100.00
11198;BME280;5655;48.744;9.162;2023-02-10T04:38:28;97988.81;;;-0.20;100.00
11198;BME280;5655;48.744;9.162;2023-02-10T04:40:53;97989.81;;;-0.31;100.00
11198;BME280;5655;48.744;9.162;2023-02-10T04:43:18;97989.31;;;-0.23;100.00
11198;BME280;5655;48.744;9.162;2023-02-10T04:45:44;97985.66;;;-0.22;100.00
11198;BME280;5655;48.744;9.162;2023-02-10T04:48:09;97990.41;;;-0.19;100.00
11198;BME280;5655;48.744;9.162;2023-02-10T04:50:38;97988.47;;;0.08;100.00
11198;BME280;5655;48.744;9.162;2023-02-10T04:53:04;97993.06;;;-0.14;100.00
11198;BME280;5655;48.744;9.162;2023-02-10T04:55:29;97994.66;;;-0.50;100.00
11198;BME280;5655;48.744;9.162;2023-02-10T04:57:54;97988.81;;;-0.57;100.00
11198;BME280;5655;48.744;9.162;2023-02-10T05:00:20;97997.09;;;-0.43;100.00
11198;BME280;5655;48.744;9.162;2023-02-10T05:02:45;97995.06;;;-0.31;100.00
11198;BME280;5655;48.744;9.162;2023-02-10T05:05:11;97998.41;;;-0.41;100.00
11198;BME280;5655;48.744;9.162;2023-02-10T05:07:37;97997.50;;;-0.57;100.00
11198;BME280;5655;48.744;9.162;2023-02-10T05:10:03;97999.59;;;-0.85;100.00
11198;BME280;5655;48.744;9.162;2023-02-10T05:12:28;97996.94;;;-0.59;100.00
11198;BME280;5655;48.744;9.162;2023-02-10T05:14:53;97998.94;;;-0.71;100.00
11198;BME280;5655;48.744;9.162;2023-02-10T05:17:19;98005.84;;;-0.65;100.00
11198;BME280;5655;48.744;9.162;2023-02-10T05:19:44;98016.22;;;-0.80;100.00
11198;BME280;5655;48.744;9.162;2023-02-10T05:22:10;98009.66;;;-0.77;100.00
11198;BME280;5655;48.744;9.162;2023-02-10T05:24:35;98003.81;;;-0.84;100.00
11198;BME280;5655;48.744;9.162;2023-02-10T05:27:00;98012.94;;;-0.92;100.00
11198;BME280;5655;48.744;9.162;2023-02-10T05:29:26;98014.16;;;-0.78;100.00
11198;BME280;5655;48.744;9.162;2023-02-10T05:31:51;98007.28;;;-0.79;100.00
11198;BME280;5655;48.744;9.162;2023-02-10T05:34:16;98015.22;;;-0.74;100.00
11198;BME280;5655;48.744;9.162;2023-02-10T05:36:42;98003.03;;;-0.85;100.00
11198;BME280;5655;48.744;9.162;2023-02-10T05:39:10;98016.44;;;-0.81;100.00
11198;BME280;5655;48.744;9.162;2023-02-10T05:41:55;98020.06;;;-0.29;100.00
11198;BME280;5655;48.744;9.162;2023-02-10T05:44:21;98014.94;;;-0.46;100.00
11198;BME280;5655;48.744;9.162;2023-02-10T05:46:47;98020.09;;;-0.87;100.00
11198;BME280;5655;48.744;9.162;2023-02-10T05:49:12;98027.41;;;-0.63;100.00
11198;BME280;5655;48.744;9.162;2023-02-10T05:51:37;98030.78;;;-0.67;100.00
11198;BME280;5655;48.744;9.162;2023-02-10T05:54:03;98032.16;;;-0.65;100.00
11198;BME280;5655;48.744;9.162;2023-02-10T05:56:28;98031.06;;;-0.91;100.00
11198;BME280;5655;48.744;9.162;2023-02-10T05:58:54;98031.28;;;-0.70;100.00
11198;BME280;5655;48.744;9.162;2023-02-10T06:01:20;98031.94;;;-0.58;100.00
11198;BME280;5655;48.744;9.162;2023-02-10T06:03:45;98041.13;;;-0.61;100.00
11198;BME280;5655;48.744;9.162;2023-02-10T06:06:11;98041.59;;;-0.64;100.00
11198;BME280;5655;48.744;9.162;2023-02-10T06:08:36;98043.47;;;-0.91;100.00
11198;BME280;5655;48.744;9.162;2023-02-10T06:11:02;98038.84;;;-0.79;100.00
11198;BME280;5655;48.744;9.162;2023-02-10T06:13:27;98049.88;;;-0.77;100.00
11198;BME280;5655;48.744;9.162;2023-02-10T06:15:53;98049.66;;;-0.75;100.00
11198;BME280;5655;48.744;9.162;2023-02-10T06:18:18;98051.00;;;-0.95;100.00
11198;BME280;5655;48.744;9.162;2023-02-10T06:20:47;98050.44;;;-0.75;100.00
11198;BME280;5655;48.744;9.162;2023-02-10T06:23:13;98054.00;;;-0.86;100.00
11198;BME280;5655;48.744;9.162;2023-02-10T06:25:38;98064.13;;;-0.73;100.00
11198;BME280;5655;48.744;9.162;2023-02-10T06:28:04;98057.56;;;-0.97;100.00
11198;BME280;5655;48.744;9.162;2023-02-10T06:30:29;98058.38;;;-1.18;100.00
11198;BME280;5655;48.744;9.162;2023-02-10T06:32:55;98061.13;;;-0.81;100.00
11198;BME280;5655;48.744;9.162;2023-02-10T06:35:20;98053.66;;;-1.16;100.00
11198;BME280;5655;48.744;9.162;2023-02-10T06:37:46;98056.63;;;-1.34;100.00
11198;BME280;5655;48.744;9.162;2023-02-10T06:40:11;98056.19;;;-1.26;100.00
11198;BME280;5655;48.744;9.162;2023-02-10T06:42:37;98062.97;;;-0.82;100.00
11198;BME280;5655;48.744;9.162;2023-02-10T06:45:05;98070.38;;;-0.79;100.00
11198;BME280;5655;48.744;9.162;2023-02-10T06:47:34;98070.56;;;-0.85;100.00
11198;BME280;5655;48.744;9.162;2023-02-10T06:49:59;98070.50;;;-1.17;100.00
11198;BME280;5655;48.744;9.162;2023-02-10T06:52:25;98078.03;;;-0.99;100.00
11198;BME280;5655;48.744;9.162;2023-02-10T06:54:52;98069.44;;;-1.16;100.00
11198;BME280;5655;48.744;9.162;2023-02-10T06:57:17;98089.22;;;-0.87;100.00
11198;BME280;5655;48.744;9.162;2023-02-10T06:59:42;98090.78;;;-0.86;100.00
11198;BME280;5655;48.744;9.162;2023-02-10T07:02:10;98087.25;;;-0.75;100.00
11198;BME280;5655;48.744;9.162;2023-02-10T07:04:36;98096.59;;;-0.84;100.00
11198;BME280;5655;48.744;9.162;2023-02-10T07:07:02;98098.91;;;-0.66;100.00
11198;BME280;5655;48.744;9.162;2023-02-10T07:09:27;98097.94;;;-1.25;100.00
11198;BME280;5655;48.744;9.162;2023-02-10T07:11:53;98098.31;;;-0.95;100.00
11198;BME280;5655;48.744;9.162;2023-02-10T07:14:18;98097.75;;;-0.75;100.00
11198;BME280;5655;48.744;9.162;2023-02-10T07:16:43;98105.78;;;-0.60;100.00
11198;BME280;5655;48.744;9.162;2023-02-10T07:19:09;98100.97;;;-0.68;100.00
11198;BME280;5655;48.744;9.162;2023-02-10T07:21:34;98094.78;;;-0.57;100.00
11198;BME280;5655;48.744;9.162;2023-02-10T07:23:59;98087.09;;;-0.63;100.00
11198;BME280;5655;48.744;9.162;2023-02-10T07:26:26;98099.44;;;-0.64;100.00
11198;BME280;5655;48.744;9.162;2023-02-10T07:28:52;98102.00;;;-0.69;100.00
11198;BME280;5655;48.744;9.162;2023-02-10T07:31:17;98101.94;;;-0.52;100.00
11198;BME280;5655;48.744;9.162;2023-02-10T07:33:43;98103.78;;;-0.53;100.00
11198;BME280;5655;48.744;9.162;2023-02-10T07:36:08;98109.09;;;-0.48;100.00
11198;BME280;5655;48.744;9.162;2023-02-10T07:38:34;98114.03;;;-0.24;100.00
11198;BME280;5655;48.744;9.162;2023-02-10T07:41:01;98112.34;;;-0.35;100.00
11198;BME280;5655;48.744;9.162;2023-02-10T07:43:26;98114.59;;;-0.17;100.00
11198;BME280;5655;48.744;9.162;2023-02-10T07:45:51;98116.59;;;-0.29;100.00
11198;BME280;5655;48.744;9.162;2023-02-10T07:48:17;98115.16;;;-0.15;100.00
11198;BME280;5655;48.744;9.162;2023-02-10T07:50:43;98123.00;;;-0.20;100.00
11198;BME280;5655;48.744;9.162;2023-02-10T07:53:09;98123.28;;;-0.22;100.00
11198;BME280;5655;48.744;9.162;2023-02-10T07:55:36;98122.06;;;-0.09;100.00
11198;BME280;5655;48.744;9.162;2023-02-10T07:58:01;98114.25;;;-0.31;100.00
11198;BME280;5655;48.744;9.162;2023-02-10T08:00:27;98115.94;;;-0.15;100.00
11198;BME280;5655;48.744;9.162;2023-02-10T08:02:52;98115.41;;;-0.17;100.00
11198;BME280;5655;48.744;9.162;2023-02-10T08:05:18;98115.16;;;-0.15;100.00
11198;BME280;5655;48.744;9.162;2023-02-10T08:07:43;98114.31;;;-0.21;100.00
11198;BME280;5655;48.744;9.162;2023-02-10T08:10:08;98121.13;;;0.07;100.00
11198;BME280;5655;48.744;9.162;2023-02-10T08:12:34;98112.25;;;0.18;100.00
11198;BME280;5655;48.744;9.162;2023-02-10T08:14:59;98119.72;;;-0.06;100.00
11198;BME280;5655;48.744;9.162;2023-02-10T08:17:24;98120.63;;;0.10;100.00
11198;BME280;5655;48.744;9.162;2023-02-10T08:19:50;98121.28;;;0.27;100.00
11198;BME280;5655;48.744;9.162;2023-02-10T08:22:15;98116.91;;;0.06;100.00
11198;BME280;5655;48.744;9.162;2023-02-10T08:24:40;98126.81;;;-0.06;100.00
11198;BME280;5655;48.744;9.162;2023-02-10T08:27:06;98125.63;;;0.12;100.00
11198;BME280;5655;48.744;9.162;2023-02-10T08:29:31;98130.84;;;0.43;100.00
11198;BME280;5655;48.744;9.162;2023-02-10T08:31:57;98131.81;;;0.27;100.00
11198;BME280;5655;48.744;9.162;2023-02-10T08:34:22;98133.03;;;0.52;100.00
11198;BME280;5655;48.744;9.162;2023-02-10T08:36:48;98125.13;;;0.57;100.00
11198;BME280;5655;48.744;9.162;2023-02-10T08:39:14;98130.97;;;0.59;100.00
11198;BME280;5655;48.744;9.162;2023-02-10T08:41:40;98134.72;;;0.68;100.00
11198;BME280;5655;48.744;9.162;2023-02-10T08:44:06;98148.41;;;0.65;100.00
11198;BME280;5655;48.744;9.162;2023-02-10T08:46:31;98140.16;;;0.56;100.00
11198;BME280;5655;48.744;9.162;2023-02-10T08:48:57;98142.59;;;0.68;100.00
11198;BME280;5655;48.744;9.162;2023-02-10T08:51:26;98140.41;;;1.02;100.00
11198;BME280;5655;48.744;9.162;2023-02-10T08:53:51;98142.47;;;0.89;100.00
11198;BME280;5655;48.744;9.162;2023-02-10T08:56:17;98139.56;;;0.91;100.00
11198;BME280;5655;48.744;9.162;2023-02-10T08:58:44;98151.25;;;1.10;100.00
11198;BME280;5655;48.744;9.162;2023-02-10T09:01:13;98136.59;;;1.40;100.00
11198;BME280;5655;48.744;9.162;2023-02-10T09:03:40;98148.63;;;1.15;100.00
11198;BME280;5655;48.744;9.162;2023-02-10T09:06:05;98140.22;;;1.23;100.00
11198;BME280;5655;48.744;9.162;2023-02-10T09:08:36;98137.56;;;1.18;100.00
11198;BME280;5655;48.744;9.162;2023-02-10T09:11:05;98142.16;;;1.48;100.00
11198;BME280;5655;48.744;9.162;2023-02-10T09:13:30;98144.53;;;1.50;100.00
11198;BME280;5655;48.744;9.162;2023-02-10T09:15:56;98139.81;;;1.67;100.00
11198;BME280;5655;48.744;9.162;2023-02-10T09:18:21;98144.56;;;1.70;100.00
11198;BME280;5655;48.744;9.162;2023-02-10T09:20:46;98144.84;;;1.63;100.00
11198;BME280;5655;48.744;9.162;2023-02-10T09:23:12;98143.25;;;1.62;100.00
11198;BME280;5655;48.744;9.162;2023-02-10T09:25:37;98150.97;;;2.19;100.00
11198;BME280;5655;48.744;9.162;2023-02-10T09:28:02;98142.47;;;2.38;100.00
11198;BME280;5655;48.744;9.162;2023-02-10T09:30:28;98139.53;;;2.64;100.00
11198;BME280;5655;48.744;9.162;2023-02-10T09:32:53;98142.97;;;2.65;100.00
11198;BME280;5655;48.744;9.162;2023-02-10T09:35:19;98136.38;;;2.62;100.00
11198;BME280;5655;48.744;9.162;2023-02-10T09:37:45;98135.03;;;2.80;100.00
11198;BME280;5655;48.744;9.162;2023-02-10T09:40:25;98139.22;;;3.50;100.00
11198;BME280;5655;48.744;9.162;2023-02-10T09:45:39;98141.78;;;3.71;100.00
11198;BME280;5655;48.744;9.162;2023-02-10T09:48:59;98146.38;;;3.94;100.00
11198;BME280;5655;48.744;9.162;2023-02-10T09:51:43;98148.59;;;4.16;100.00
11198;BME280;5655;48.744;9.162;2023-02-10T09:54:11;98144.91;;;4.11;100.00
11198;BME280;5655;48.744;9.162;2023-02-10T09:56:38;98149.75;;;4.04;100.00
11198;BME280;5655;48.744;9.162;2023-02-10T09:59:05;98151.06;;;4.36;100.00
11198;BME280;5655;48.744;9.162;2023-02-10T10:01:46;98141.41;;;5.02;100.00
11198;BME280;5655;48.744;9.162;2023-02-10T10:04:16;98152.56;;;4.76;100.00
11198;BME280;5655;48.744;9.162;2023-02-10T10:06:48;98147.97;;;4.86;100.00
11198;BME280;5655;48.744;9.162;2023-02-10T10:09:30;98151.91;;;5.13;100.00
11198;BME280;5655;48.744;9.162;2023-02-10T10:11:59;98144.53;;;5.52;100.00
11198;BME280;5655;48.744;9.162;2023-02-10T10:14:35;98141.72;;;5.62;100.00
11198;BME280;5655;48.744;9.162;2023-02-10T10:25:48;98148.56;;;6.06;100.00
11198;BME280;5655;48.744;9.162;2023-02-10T10:31:08;98147.91;;;7.06;100.00
11198;BME280;5655;48.744;9.162;2023-02-10T10:36:17;98143.16;;;7.30;100.00
11198;BME280;5655;48.744;9.162;2023-02-10T10:38:54;98139.59;;;7.48;100.00
11198;BME280;5655;48.744;9.162;2023-02-10T10:41:26;98146.31;;;7.05;100.00
11198;BME280;5655;48.744;9.162;2023-02-10T10:43:54;98138.66;;;7.66;100.00
11198;BME280;5655;48.744;9.162;2023-02-10T10:46:39;98138.94;;;7.29;100.00
11198;BME280;5655;48.744;9.162;2023-02-10T10:49:07;98142.44;;;7.38;100.00
11198;BME280;5655;48.744;9.162;2023-02-10T10:51:32;98142.66;;;7.42;98.72
11198;BME280;5655;48.744;9.162;2023-02-10T10:54:00;98142.94;;;7.90;94.05
11198;BME280;5655;48.744;9.162;2023-02-10T10:56:49;98143.78;;;7.99;95.04
11198;BME280;5655;48.744;9.162;2023-02-10T11:01:53;98133.75;;;8.18;98.48
11198;BME280;5655;48.744;9.162;2023-02-10T11:04:21;98122.00;;;8.19;100.00
11198;BME280;5655;48.744;9.162;2023-02-10T11:06:50;98134.97;;;8.12;95.30
11198;BME280;5655;48.744;9.162;2023-02-10T11:09:27;98115.75;;;8.24;98.43
11198;BME280;5655;48.744;9.162;2023-02-10T11:12:01;98118.03;;;7.94;90.76
11198;BME280;5655;48.744;9.162;2023-02-10T11:14:29;98116.13;;;7.72;89.75
11198;BME280;5655;48.744;9.162;2023-02-10T11:17:01;98121.59;;;7.90;87.51
11198;BME280;5655;48.744;9.162;2023-02-10T11:19:31;98118.50;;;8.32;86.37
11198;BME280;5655;48.744;9.162;2023-02-10T11:21:58;98121.16;;;8.94;100.00
11198;BME280;5655;48.744;9.162;2023-02-10T11:24:28;98107.72;;;9.07;91.45
11198;BME280;5655;48.744;9.162;2023-02-10T11:27:16;98112.56;;;9.79;84.81
11198;BME280;5655;48.744;9.162;2023-02-10T11:29:47;98119.19;;;9.08;82.82
11198;BME280;5655;48.744;9.162;2023-02-10T11:32:39;98117.72;;;9.58;95.42
11198;BME280;5655;48.744;9.162;2023-02-10T11:35:14;98114.69;;;9.26;93.51
11198;BME280;5655;48.744;9.162;2023-02-10T11:37:39;98117.59;;;9.89;72.00
11198;BME280;5655;48.744;9.162;2023-02-10T11:40:27;98122.78;;;10.12;81.66
11198;BME280;5655;48.744;9.162;2023-02-10T11:42:55;98118.22;;;9.78;84.67
11198;BME280;5655;48.744;9.162;2023-02-10T11:45:29;98112.06;;;9.69;80.03
11198;BME280;5655;48.744;9.162;2023-02-10T11:48:12;98110.34;;;9.98;83.23
11198;BME280;5655;48.744;9.162;2023-02-10T11:50:38;98109.72;;;9.84;82.76
11198;BME280;5655;48.744;9.162;2023-02-10T11:53:04;98109.56;;;9.81;84.26
11198;BME280;5655;48.744;9.162;2023-02-10T11:55:51;98116.63;;;9.77;82.69
11198;BME280;5655;48.744;9.162;2023-02-10T12:01:49;98116.75;;;9.46;84.16
11198;BME280;5655;48.744;9.162;2023-02-10T12:04:42;98113.94;;;9.60;86.38
11198;BME280;5655;48.744;9.162;2023-02-10T12:07:18;98113.22;;;9.11;84.95
11198;BME280;5655;48.744;9.162;2023-02-10T12:17:54;98098.22;;;10.18;71.96
11198;BME280;5655;48.744;9.162;2023-02-10T12:28:01;98097.91;;;10.28;69.97
11198;BME280;5655;48.744;9.162;2023-02-10T12:33:38;98095.41;;;10.23;71.78
11198;BME280;5655;48.744;9.162;2023-02-10T12:36:14;98092.03;;;10.61;67.98
11198;BME280;5655;48.744;9.162;2023-02-10T12:44:34;98082.63;;;10.84;63.97
11198;BME280;5655;48.744;9.162;2023-02-10T12:49:58;98071.97;;;9.60;68.61
11198;BME280;5655;48.744;9.162;2023-02-10T12:52:32;98069.03;;;10.60;65.11
11198;BME280;5655;48.744;9.162;2023-02-10T12:55:12;98072.34;;;10.57;64.29
11198;BME280;5655;48.744;9.162;2023-02-10T12:57:44;98071.41;;;10.53;63.44
11198;BME280;5655;48.744;9.162;2023-02-10T13:00:21;98068.19;;;10.68;64.26
11198;BME280;5655;48.744;9.162;2023-02-10T13:02:54;98056.53;;;11.02;62.75
11198;BME280;5655;48.744;9.162;2023-02-10T13:05:31;98061.38;;;11.37;60.30
11198;BME280;5655;48.744;9.162;2023-02-10T13:08:00;98061.19;;;11.13;60.14
11198;BME280;5655;48.744;9.162;2023-02-10T13:13:32;98059.59;;;10.45;60.40
11198;BME280;5655;48.744;9.162;2023-02-10T13:16:18;98069.00;;;10.68;59.30
11198;BME280;5655;48.744;9.162;2023-02-10T13:18:56;98059.09;;;10.98;58.07
11198;BME280;5655;48.744;9.162;2023-02-10T13:21:29;98052.91;;;10.68;59.71
11198;BME280;5655;48.744;9.162;2023-02-10T13:24:03;98062.03;;;11.05;62.11
11198;BME280;5655;48.744;9.162;2023-02-10T13:26:41;98062.00;;;10.76;59.93
11198;BME280;5655;48.744;9.162;2023-02-10T13:34:20;98062.81;;;10.13;60.74
11198;BME280;5655;48.744;9.162;2023-02-10T13:37:28;98067.06;;;10.77;61.09
11198;BME280;5655;48.744;9.162;2023-02-10T13:39:54;98065.41;;;10.93;61.00
11198;BME280;5655;48.744;9.162;2023-02-10T13:42:30;98070.97;;;10.80;58.19
11198;BME280;5655;48.744;9.162;2023-02-10T13:44:59;98066.53;;;10.84;58.52
11198;BME280;5655;48.744;9.162;2023-02-10T13:47:36;98075.00;;;10.65;59.81
11198;BME280;5655;48.744;9.162;2023-02-10T13:57:59;98062.03;;;11.05;60.04
11198;BME280;5655;48.744;9.162;2023-02-10T14:00:45;98078.69;;;10.81;58.25
11198;BME280;5655;48.744;9.162;2023-02-10T14:05:56;98076.47;;;10.45;59.83
11198;BME280;5655;48.744;9.162;2023-02-10T14:08:44;98075.56;;;9.55;63.77
11198;BME280;5655;48.744;9.162;2023-02-10T14:14:14;98070.34;;;10.36;60.60
11198;BME280;5655;48.744;9.162;2023-02-10T14:16:42;98073.69;;;9.82;63.21
11198;BME280;5655;48.744;9.162;2023-02-10T14:19:36;98067.72;;;9.85;64.12
11198;BME280;5655;48.744;9.162;2023-02-10T14:22:04;98060.19;;;9.78;65.92
11198;BME280;5655;48.744;9.162;2023-02-10T14:24:33;98066.94;;;9.67;65.86
11198;BME280;5655;48.744;9.162;2023-02-10T14:27:02;98072.72;;;9.26;65.69
11198;BME280;5655;48.744;9.162;2023-02-10T14:29:31;98068.59;;;9.20;66.44
11198;BME280;5655;48.744;9.162;2023-02-10T14:31:59;98069.91;;;9.31;66.47
11198;BME280;5655;48.744;9.162;2023-02-10T14:34:33;98066.03;;;8.98;68.12
11198;BME280;5655;48.744;9.162;2023-02-10T14:37:02;98070.72;;;8.84;70.05
11198;BME280;5655;48.744;9.162;2023-02-10T14:39:30;98067.28;;;8.52;72.32
11198;BME280;5655;48.744;9.162;2023-02-10T14:42:00;98068.63;;;8.72;70.80
11198;BME280;5655;48.744;9.162;2023-02-10T14:46:59;98067.09;;;8.40;72.10
11198;BME280;5655;48.744;9.162;2023-02-10T14:49:25;98066.22;;;8.53;72.30
11198;BME280;5655;48.744;9.162;2023-02-10T14:51:51;98069.41;;;8.73;71.52